Time;durP1;ratioP1;P1;durP2;ratioP2;P2;SDS_P1;SDS_P2;PMS_P1;PMS_P2;Temp;Humidity;BMP_temperature;BMP_pressure;BME280_temperature;BME280_humidity;BME280_pressure;Samples;Min_cycle;Max_cycle;Signal;HPM_P1;HPM_P2
2022/07/09 00:00:25;;;;;;;12.10;6.32;;;19.50;99.90;;;;;;4722650;30;20057;-70
2022/07/09 00:02:51;;;;;;;11.68;5.90;;;19.40;99.90;;;;;;4722407;30;20052;-70
2022/07/09 00:05:16;;;;;;;13.40;6.68;;;19.40;99.90;;;;;;4721258;30;20415;-71
2022/07/09 00:07:42;;;;;;;11.27;6.07;;;19.40;99.90;;;;;;4722028;30;20043;-70
2022/07/09 00:10:08;;;;;;;11.02;5.85;;;19.30;99.90;;;;;;4720542;30;20045;-70
2022/07/09 00:12:34;;;;;;;11.98;5.25;;;19.30;99.90;;;;;;4721887;30;20086;-70
2022/07/09 00:14:59;;;;;;;9.23;5.40;;;19.30;99.90;;;;;;4721515;30;20101;-70
2022/07/09 00:17:29;;;;;;;13.63;5.80;;;19.30;99.90;;;;;;4721612;30;20068;-70
2022/07/09 00:19:56;;;;;;;10.82;5.40;;;19.40;99.90;;;;;;4721165;30;20052;-70
2022/07/09 00:22:22;;;;;;;13.20;5.90;;;19.30;99.90;;;;;;4721014;30;20052;-70
2022/07/09 00:24:48;;;;;;;17.73;7.10;;;19.30;99.90;;;;;;4722017;30;20079;-70
2022/07/09 00:27:13;;;;;;;20.13;7.35;;;19.30;99.90;;;;;;4722091;30;20045;-70
2022/07/09 00:29:39;;;;;;;13.00;6.35;;;19.30;99.90;;;;;;4721216;30;20056;-70
2022/07/09 00:32:05;;;;;;;16.67;6.93;;;19.30;99.90;;;;;;4721811;30;20119;-70
2022/07/09 00:34:32;;;;;;;16.98;7.75;;;19.30;99.90;;;;;;4721353;30;20045;-70
2022/07/09 00:36:57;;;;;;;16.30;6.90;;;19.30;99.90;;;;;;4721211;30;20300;-70
2022/07/09 00:39:23;;;;;;;11.85;6.43;;;19.30;99.90;;;;;;4721396;30;20041;-70
2022/07/09 00:41:49;;;;;;;18.67;8.07;;;19.30;99.90;;;;;;4720212;30;20061;-70
2022/07/09 00:44:14;;;;;;;17.02;8.73;;;19.30;99.90;;;;;;4721263;30;20049;-70
2022/07/09 00:46:40;;;;;;;19.23;9.65;;;19.20;99.90;;;;;;4721117;30;20060;-70
2022/07/09 00:49:06;;;;;;;16.70;8.27;;;19.10;99.90;;;;;;4721690;30;20041;-70
2022/07/09 00:51:32;;;;;;;21.13;7.93;;;19.20;99.90;;;;;;4721833;30;20110;-70
2022/07/09 00:53:59;;;;;;;19.10;8.40;;;19.30;99.90;;;;;;4721682;30;20084;-70
2022/07/09 00:56:28;;;;;;;27.98;11.18;;;19.20;99.90;;;;;;4721479;30;20413;-70
2022/07/09 00:58:54;;;;;;;18.45;8.77;;;19.20;99.90;;;;;;4721028;30;20135;-70
2022/07/09 01:01:20;;;;;;;22.50;11.40;;;19.10;99.90;;;;;;4720935;30;20100;-70
2022/07/09 01:03:45;;;;;;;22.08;10.00;;;19.00;99.90;;;;;;4720573;30;20049;-70
2022/07/09 01:06:11;;;;;;;27.77;10.48;;;19.10;99.90;;;;;;4720781;30;20041;-70
2022/07/09 01:08:37;;;;;;;24.02;10.48;;;19.20;99.90;;;;;;4720730;30;20049;-70
2022/07/09 01:11:03;;;;;;;18.85;8.18;;;19.20;99.90;;;;;;4721451;30;20053;-70
2022/07/09 01:13:29;;;;;;;20.40;8.43;;;19.20;99.90;;;;;;4721322;30;20344;-70
2022/07/09 01:15:55;;;;;;;21.38;9.30;;;19.30;99.90;;;;;;4720866;30;20057;-70
2022/07/09 01:18:21;;;;;;;21.77;9.32;;;19.30;99.90;;;;;;4721016;30;20065;-70
2022/07/09 01:20:46;;;;;;;23.05;10.10;;;19.10;99.90;;;;;;4721184;30;20056;-70
2022/07/09 01:23:12;;;;;;;18.92;9.88;;;19.00;99.90;;;;;;4721274;30;20037;-70
2022/07/09 01:25:41;;;;;;;24.67;11.55;;;18.80;99.90;;;;;;4720439;30;20049;-70
2022/07/09 01:28:08;;;;;;;28.60;10.40;;;18.60;99.90;;;;;;4721006;30;20325;-70
2022/07/09 01:30:37;;;;;;;26.98;10.77;;;18.40;99.90;;;;;;4721040;30;20068;-70
2022/07/09 01:33:03;;;;;;;22.10;10.23;;;18.50;99.90;;;;;;4720986;30;20356;-70
2022/07/09 01:35:30;;;;;;;24.98;10.18;;;18.40;99.90;;;;;;4721181;30;20045;-70
2022/07/09 01:37:55;;;;;;;20.77;10.43;;;18.40;99.90;;;;;;4720962;30;20309;-70
2022/07/09 01:40:22;;;;;;;21.17;8.95;;;18.50;99.90;;;;;;4720128;30;20044;-70
2022/07/09 01:42:48;;;;;;;22.20;9.75;;;18.60;99.90;;;;;;4720081;30;20051;-70
2022/07/09 01:45:15;;;;;;;23.17;10.57;;;18.60;99.90;;;;;;4720025;30;20045;-70
2022/07/09 01:47:42;;;;;;;27.50;10.90;;;18.60;99.90;;;;;;4719473;30;20053;-70
2022/07/09 01:50:09;;;;;;;23.63;9.60;;;18.60;99.90;;;;;;4721404;30;20063;-70
2022/07/09 01:52:35;;;;;;;25.88;10.40;;;18.50;99.90;;;;;;4720964;30;20408;-70
2022/07/09 01:55:01;;;;;;;26.25;10.38;;;18.60;99.90;;;;;;4720774;30;20041;-70
2022/07/09 01:57:27;;;;;;;26.50;10.07;;;18.50;99.90;;;;;;4720607;30;20061;-70
2022/07/09 01:59:53;;;;;;;22.55;11.02;;;18.60;99.90;;;;;;4720533;30;20048;-70
2022/07/09 02:02:19;;;;;;;24.23;11.15;;;18.70;99.90;;;;;;4720836;30;20120;-70
2022/07/09 02:04:47;;;;;;;33.90;10.98;;;18.40;99.90;;;;;;4720679;30;20128;-70
2022/07/09 02:07:13;;;;;;;24.27;10.38;;;18.40;99.90;;;;;;4720685;30;20051;-70
2022/07/09 02:09:39;;;;;;;28.52;11.10;;;18.30;99.90;;;;;;4720642;30;20080;-70
2022/07/09 02:12:05;;;;;;;29.27;11.48;;;18.30;99.90;;;;;;4720558;30;20056;-70
2022/07/09 02:14:31;;;;;;;25.13;9.95;;;18.20;99.90;;;;;;4720299;30;20045;-70
2022/07/09 02:16:57;;;;;;;23.55;9.25;;;18.30;99.90;;;;;;4720084;30;20112;-71
2022/07/09 02:19:23;;;;;;;27.98;10.07;;;18.40;99.90;;;;;;4720473;30;20049;-70
2022/07/09 02:21:49;;;;;;;28.58;12.38;;;18.50;99.90;;;;;;4720292;30;20053;-70
2022/07/09 02:24:15;;;;;;;15.90;8.15;;;18.60;99.90;;;;;;4720680;30;20049;-70
2022/07/09 02:26:40;;;;;;;22.38;9.80;;;18.50;99.90;;;;;;4720342;30;20114;-70
2022/07/09 02:29:06;;;;;;;25.08;10.77;;;18.60;99.90;;;;;;4720622;30;20128;-70
2022/07/09 02:31:32;;;;;;;31.25;10.30;;;18.40;99.90;;;;;;4720163;30;20042;-70
2022/07/09 02:33:57;;;;;;;22.02;10.70;;;18.50;99.90;;;;;;4719660;30;20539;-70
2022/07/09 02:36:23;;;;;;;27.52;11.77;;;18.50;99.90;;;;;;4720316;30;20080;-70
2022/07/09 02:38:49;;;;;;;32.92;11.73;;;18.40;99.90;;;;;;4719888;30;20344;-70
2022/07/09 02:41:15;;;;;;;25.77;12.10;;;18.40;99.90;;;;;;4720183;30;20144;-70
2022/07/09 02:43:43;;;;;;;27.73;11.65;;;18.30;99.90;;;;;;4719169;30;20053;-70
2022/07/09 02:46:10;;;;;;;19.63;11.70;;;18.10;99.90;;;;;;4718683;30;20432;-69
2022/07/09 02:48:35;;;;;;;31.50;12.45;;;18.00;99.90;;;;;;4720421;30;20436;-69
2022/07/09 02:51:01;;;;;;;28.23;12.35;;;18.00;99.90;;;;;;4719577;30;20084;-70
2022/07/09 02:53:27;;;;;;;23.52;10.80;;;18.00;99.90;;;;;;4720127;30;20428;-70
2022/07/09 02:55:53;;;;;;;24.60;11.60;;;17.90;99.90;;;;;;4720238;30;20060;-70
2022/07/09 02:58:18;;;;;;;18.25;9.93;;;18.10;99.90;;;;;;4720260;30;20406;-70
2022/07/09 03:00:44;;;;;;;24.10;9.68;;;18.10;99.90;;;;;;4719330;30;20152;-70
2022/07/09 03:03:10;;;;;;;22.42;9.65;;;18.30;99.90;;;;;;4720147;30;20143;-70
2022/07/09 03:05:36;;;;;;;22.42;10.00;;;18.50;99.90;;;;;;4720017;30;20045;-70
2022/07/09 03:08:02;;;;;;;20.23;8.70;;;18.60;99.90;;;;;;4721081;30;20436;-69
2022/07/09 03:10:29;;;;;;;16.23;7.88;;;18.60;99.90;;;;;;4723265;30;20430;-69
2022/07/09 03:12:54;;;;;;;15.45;6.93;;;18.50;99.90;;;;;;4723348;30;20127;-70
2022/07/09 03:15:20;;;;;;;16.20;7.70;;;18.50;99.90;;;;;;4722417;30;20124;-70
2022/07/09 03:17:47;;;;;;;16.27;6.60;;;18.60;99.90;;;;;;4722244;30;20069;-70
2022/07/09 03:20:14;;;;;;;15.60;5.88;;;18.50;99.90;;;;;;4722598;30;20045;-70
2022/07/09 03:22:40;;;;;;;15.25;7.28;;;18.50;99.90;;;;;;4722898;30;20056;-70
2022/07/09 03:25:06;;;;;;;12.65;5.75;;;18.50;99.90;;;;;;4723057;30;20049;-70
2022/07/09 03:27:33;;;;;;;9.05;5.32;;;18.50;99.90;;;;;;4721908;30;20049;-71
2022/07/09 03:29:59;;;;;;;11.63;5.55;;;18.40;99.90;;;;;;4723209;30;20053;-69
2022/07/09 03:32:25;;;;;;;17.33;7.55;;;18.40;99.90;;;;;;4722921;30;20055;-69
2022/07/09 03:34:52;;;;;;;14.52;6.78;;;18.50;99.90;;;;;;4722991;30;20076;-70
2022/07/09 03:37:18;;;;;;;14.40;6.97;;;18.40;99.90;;;;;;4722796;30;20116;-70
2022/07/09 03:39:44;;;;;;;18.33;7.88;;;18.40;99.90;;;;;;4722781;30;20049;-70
2022/07/09 03:42:11;;;;;;;12.38;6.18;;;18.50;99.90;;;;;;4722879;30;20072;-70
2022/07/09 03:44:37;;;;;;;14.02;6.28;;;18.20;99.90;;;;;;4722907;30;20469;-69
2022/07/09 03:47:03;;;;;;;14.45;6.53;;;18.20;99.90;;;;;;4722536;30;20321;-70
2022/07/09 03:49:29;;;;;;;18.08;7.13;;;18.30;99.90;;;;;;4722317;30;20041;-70
2022/07/09 03:51:55;;;;;;;17.75;6.80;;;18.30;99.90;;;;;;4722704;30;20052;-70
2022/07/09 03:54:20;;;;;;;12.35;6.05;;;18.30;99.90;;;;;;4722603;30;20045;-70
2022/07/09 03:56:46;;;;;;;14.93;5.68;;;18.30;99.90;;;;;;4722765;30;20340;-70
2022/07/09 03:59:12;;;;;;;16.08;7.55;;;18.40;99.90;;;;;;4722414;30;20088;-70
2022/07/09 04:01:37;;;;;;;13.55;6.88;;;18.40;99.90;;;;;;4722507;30;20111;-70
2022/07/09 04:04:04;;;;;;;15.48;6.90;;;18.40;99.90;;;;;;4722187;30;20053;-70
2022/07/09 04:06:30;;;;;;;14.68;6.53;;;18.40;99.90;;;;;;4722454;30;20096;-70
2022/07/09 04:08:56;;;;;;;15.35;6.97;;;18.40;99.90;;;;;;4722313;30;20110;-70
2022/07/09 04:11:21;;;;;;;17.27;8.02;;;18.40;99.90;;;;;;4722178;30;20075;-70
2022/07/09 04:13:47;;;;;;;11.00;6.07;;;18.40;99.90;;;;;;4722298;30;20076;-70
2022/07/09 04:16:13;;;;;;;13.85;6.93;;;18.30;99.90;;;;;;4721757;30;20051;-70
2022/07/09 04:18:42;;;;;;;20.52;8.18;;;18.30;99.90;;;;;;4721927;30;20489;-72
2022/07/09 04:21:08;;;;;;;17.75;8.15;;;18.30;99.90;;;;;;4721661;30;20099;-70
2022/07/09 04:23:35;;;;;;;17.17;7.38;;;18.30;99.90;;;;;;4722146;30;20045;-70
2022/07/09 04:26:00;;;;;;;15.35;7.10;;;18.30;99.90;;;;;;4721913;30;20051;-70
2022/07/09 04:28:26;;;;;;;21.35;8.70;;;18.40;99.90;;;;;;4721990;30;20091;-70
2022/07/09 04:30:52;;;;;;;24.88;9.68;;;18.50;99.90;;;;;;4722288;30;20057;-69
2022/07/09 04:33:18;;;;;;;17.45;8.23;;;18.30;99.90;;;;;;4721070;30;20064;-70
2022/07/09 04:35:44;;;;;;;15.80;7.40;;;18.40;99.90;;;;;;4722048;30;20056;-70
2022/07/09 04:38:12;;;;;;;21.45;8.75;;;18.30;99.90;;;;;;4721791;30;20045;-70
2022/07/09 04:40:38;;;;;;;21.38;8.35;;;18.40;99.90;;;;;;4721756;30;20064;-70
2022/07/09 04:43:05;;;;;;;16.00;7.93;;;18.50;99.90;;;;;;4722052;30;20053;-70
2022/07/09 04:45:32;;;;;;;17.45;7.40;;;18.50;99.90;;;;;;4721548;30;20045;-70
2022/07/09 04:47:58;;;;;;;24.15;8.52;;;18.50;99.90;;;;;;4721560;30;20097;-70
2022/07/09 04:50:24;;;;;;;18.80;7.97;;;18.60;99.90;;;;;;4721346;30;20053;-70
2022/07/09 04:52:50;;;;;;;22.05;7.88;;;18.60;99.90;;;;;;4721029;30;20056;-70
2022/07/09 04:55:16;;;;;;;14.43;6.72;;;18.60;99.90;;;;;;4720406;30;20128;-70
2022/07/09 04:57:43;;;;;;;19.65;8.43;;;18.50;99.90;;;;;;4720858;30;20061;-70
2022/07/09 05:00:10;;;;;;;18.55;6.88;;;18.50;99.90;;;;;;4720404;30;20048;-70
2022/07/09 05:02:36;;;;;;;17.95;8.60;;;18.30;99.90;;;;;;4721320;30;20060;-70
2022/07/09 05:05:03;;;;;;;15.77;6.63;;;18.30;99.90;;;;;;4721548;30;20053;-70
2022/07/09 05:07:30;;;;;;;18.00;7.07;;;18.30;99.90;;;;;;4721233;30;20052;-70
2022/07/09 05:09:56;;;;;;;12.32;6.10;;;18.50;99.90;;;;;;4720553;30;20060;-70
2022/07/09 05:12:22;;;;;;;18.88;7.18;;;18.60;99.90;;;;;;4721127;30;20053;-70
2022/07/09 05:14:47;;;;;;;17.98;6.60;;;18.70;99.90;;;;;;4720812;30;20076;-70
2022/07/09 05:17:13;;;;;;;14.43;6.60;;;18.70;99.90;;;;;;4720339;30;20049;-70
2022/07/09 05:19:39;;;;;;;15.00;6.25;;;18.60;99.90;;;;;;4721410;30;20087;-70
2022/07/09 05:22:04;;;;;;;13.70;6.38;;;18.70;99.90;;;;;;4720476;30;20049;-70
2022/07/09 05:24:30;;;;;;;13.65;6.85;;;18.70;99.90;;;;;;4721043;30;20109;-70
2022/07/09 05:26:56;;;;;;;13.98;5.85;;;18.70;99.90;;;;;;4721252;30;20135;-70
2022/07/09 05:29:22;;;;;;;19.55;6.18;;;18.70;99.90;;;;;;4721098;30;20379;-70
2022/07/09 05:31:49;;;;;;;15.25;5.95;;;18.80;99.90;;;;;;4720634;30;20076;-70
2022/07/09 05:34:16;;;;;;;15.05;6.03;;;18.70;99.90;;;;;;4719223;30;20131;-70
2022/07/09 05:36:41;;;;;;;14.98;5.72;;;18.70;99.90;;;;;;4719714;30;20363;-70
2022/07/09 05:39:08;;;;;;;15.52;6.22;;;18.70;99.90;;;;;;4720753;30;20106;-70
2022/07/09 05:41:33;;;;;;;14.65;6.07;;;18.70;99.90;;;;;;4720734;30;20072;-70
2022/07/09 05:43:59;;;;;;;11.65;5.95;;;18.70;99.90;;;;;;4721054;30;20059;-70
2022/07/09 05:46:25;;;;;;;15.60;5.68;;;18.60;99.90;;;;;;4720362;30;20454;-70
2022/07/09 05:48:51;;;;;;;11.75;5.32;;;18.70;99.90;;;;;;4721000;30;20352;-70
2022/07/09 05:51:16;;;;;;;10.52;4.57;;;18.50;99.90;;;;;;4720259;30;20048;-70
2022/07/09 05:53:42;;;;;;;13.30;5.15;;;18.50;99.90;;;;;;4719123;30;20340;-70
2022/07/09 05:56:08;;;;;;;13.73;5.30;;;18.40;99.90;;;;;;4719125;30;20048;-70
2022/07/09 05:58:34;;;;;;;10.23;5.18;;;18.40;99.90;;;;;;4720650;30;20052;-70
2022/07/09 06:01:00;;;;;;;15.43;5.15;;;18.40;99.90;;;;;;4719973;30;20132;-70
2022/07/09 06:03:26;;;;;;;11.50;4.88;;;18.50;99.90;;;;;;4720781;30;20132;-70
2022/07/09 06:05:52;;;;;;;16.95;5.30;;;18.50;99.90;;;;;;4720525;30;20351;-70
2022/07/09 06:08:18;;;;;;;13.00;5.07;;;18.60;99.90;;;;;;4720320;30;20448;-70
2022/07/09 06:10:43;;;;;;;10.00;4.57;;;18.70;99.90;;;;;;4719523;30;20128;-70
2022/07/09 06:13:09;;;;;;;13.43;5.43;;;18.70;99.90;;;;;;4718970;30;20353;-70
2022/07/09 06:15:35;;;;;;;13.45;5.10;;;18.80;99.90;;;;;;4720591;30;20436;-70
2022/07/09 06:18:01;;;;;;;9.52;4.03;;;18.80;99.90;;;;;;4719863;30;20056;-70
2022/07/09 06:20:27;;;;;;;11.45;4.85;;;18.80;99.90;;;;;;4720630;30;20060;-70
2022/07/09 06:22:53;;;;;;;14.30;3.90;;;18.60;99.90;;;;;;4720266;30;20045;-70
2022/07/09 06:25:18;;;;;;;11.45;4.63;;;18.70;99.90;;;;;;4720692;30;20077;-70
2022/07/09 06:27:44;;;;;;;12.30;4.13;;;18.70;99.90;;;;;;4720327;30;20046;-70
2022/07/09 06:30:10;;;;;;;10.35;4.30;;;18.80;99.90;;;;;;4720465;30;20045;-70
2022/07/09 06:32:35;;;;;;;14.88;4.68;;;18.70;99.90;;;;;;4720393;30;20436;-70
2022/07/09 06:35:02;;;;;;;9.85;4.13;;;18.80;99.90;;;;;;4720339;30;20049;-70
2022/07/09 06:37:28;;;;;;;11.20;4.07;;;18.90;99.90;;;;;;4720276;30;20175;-70
2022/07/09 06:39:56;;;;;;;14.60;4.68;;;18.90;99.90;;;;;;4719462;30;20144;-70
2022/07/09 06:42:22;;;;;;;10.95;3.67;;;19.00;99.90;;;;;;4720526;30;20056;-70
2022/07/09 06:44:47;;;;;;;13.45;3.47;;;19.00;99.90;;;;;;4723496;30;20045;-70
2022/07/09 06:47:16;;;;;;;9.25;3.55;;;19.10;99.90;;;;;;4723243;30;20045;-70
2022/07/09 06:49:42;;;;;;;11.55;3.58;;;19.20;99.90;;;;;;4723659;30;20328;-70
2022/07/09 06:52:08;;;;;;;9.50;3.75;;;19.10;99.90;;;;;;4723778;30;20049;-70
2022/07/09 06:54:35;;;;;;;13.85;3.70;;;19.20;99.90;;;;;;4723537;30;20045;-70
2022/07/09 06:57:01;;;;;;;12.82;3.47;;;19.20;99.90;;;;;;4723684;30;20057;-70
2022/07/09 06:59:27;;;;;;;10.38;3.28;;;19.10;99.90;;;;;;4723572;30;20049;-70
2022/07/09 07:01:52;;;;;;;9.00;3.00;;;19.20;99.90;;;;;;4723646;30;20476;-70
2022/07/09 07:04:19;;;;;;;5.00;2.95;;;19.10;99.90;;;;;;4723658;30;20041;-70
2022/07/09 07:06:48;;;;;;;10.43;2.92;;;19.30;99.90;;;;;;4723165;30;20459;-72
2022/07/09 07:09:15;;;;;;;6.95;3.00;;;19.40;99.90;;;;;;4723370;30;20051;-70
2022/07/09 07:11:41;;;;;;;9.43;3.05;;;19.40;99.90;;;;;;4723351;30;20048;-70
2022/07/09 07:14:06;;;;;;;7.93;3.40;;;19.50;99.90;;;;;;4723345;30;20368;-70
2022/07/09 07:16:32;;;;;;;7.15;2.75;;;19.40;99.90;;;;;;4721772;30;20060;-70
2022/07/09 07:18:58;;;;;;;5.28;2.80;;;19.50;99.90;;;;;;4722131;30;20061;-70
2022/07/09 07:21:23;;;;;;;11.32;3.10;;;19.50;99.90;;;;;;4722542;30;20045;-69
2022/07/09 07:23:49;;;;;;;9.35;2.55;;;19.60;99.90;;;;;;4720747;30;20128;-72
2022/07/09 07:26:14;;;;;;;10.45;2.78;;;19.60;99.90;;;;;;4720996;30;20431;-70
2022/07/09 07:28:40;;;;;;;8.95;2.72;;;19.70;99.90;;;;;;4723265;30;20085;-71
2022/07/09 07:31:06;;;;;;;8.25;2.47;;;19.70;99.90;;;;;;4725633;30;20049;-70
2022/07/09 07:33:32;;;;;;;7.80;2.30;;;19.80;99.90;;;;;;4724743;30;20052;-71
2022/07/09 07:35:57;;;;;;;8.73;2.70;;;20.00;99.90;;;;;;4722208;30;20059;-70
2022/07/09 07:38:27;;;;;;;9.85;2.20;;;20.10;99.90;;;;;;4722947;30;20127;-70
2022/07/09 07:40:53;;;;;;;8.65;2.45;;;20.20;99.90;;;;;;4722762;30;20470;-70
2022/07/09 07:43:19;;;;;;;7.28;2.33;;;20.10;99.90;;;;;;4721708;30;20061;-70
2022/07/09 07:45:45;;;;;;;9.48;2.53;;;20.20;99.90;;;;;;4722908;30;20049;-70
2022/07/09 07:48:10;;;;;;;7.93;2.40;;;20.40;99.90;;;;;;4722184;30;20128;-70
2022/07/09 07:50:38;;;;;;;7.10;2.03;;;20.40;99.90;;;;;;4721770;30;20074;-70
2022/07/09 07:53:06;;;;;;;7.60;2.20;;;20.50;99.90;;;;;;4722851;30;20111;-70
2022/07/09 07:55:32;;;;;;;8.25;2.20;;;20.30;99.90;;;;;;4722327;30;20045;-70
2022/07/09 07:57:57;;;;;;;9.63;2.30;;;20.30;99.90;;;;;;4722800;30;20049;-70
2022/07/09 08:00:23;;;;;;;9.18;1.50;;;20.20;99.90;;;;;;4722598;30;20383;-70
2022/07/09 08:02:49;;;;;;;5.03;1.60;;;20.30;99.90;;;;;;4722401;30;20048;-71
2022/07/09 08:05:14;;;;;;;4.88;1.35;;;20.50;99.90;;;;;;4722570;30;20045;-70
2022/07/09 08:07:40;;;;;;;5.38;1.80;;;20.40;99.90;;;;;;4721246;30;20056;-70
2022/07/09 08:10:06;;;;;;;6.63;1.85;;;20.50;99.90;;;;;;4722576;30;20049;-70
2022/07/09 08:12:32;;;;;;;9.80;1.58;;;20.50;99.90;;;;;;4722336;30;20199;-71
2022/07/09 08:14:58;;;;;;;5.68;1.58;;;20.50;99.90;;;;;;4722379;30;20056;-70
2022/07/09 08:17:24;;;;;;;9.13;1.42;;;20.40;99.90;;;;;;4721724;30;20347;-70
2022/07/09 08:19:50;;;;;;;5.18;1.52;;;20.60;99.90;;;;;;4722249;30;20056;-70
2022/07/09 08:22:16;;;;;;;7.00;1.95;;;20.80;99.90;;;;;;4722387;30;20053;-70
2022/07/09 08:24:42;;;;;;;4.25;1.15;;;20.80;99.90;;;;;;4721555;30;20088;-70
2022/07/09 08:27:08;;;;;;;8.88;1.70;;;20.80;99.90;;;;;;4722023;30;20084;-70
2022/07/09 08:29:33;;;;;;;5.80;1.23;;;20.90;99.90;;;;;;4722233;30;20075;-70
2022/07/09 08:31:59;;;;;;;8.35;1.60;;;20.80;99.90;;;;;;4721840;30;20103;-71
2022/07/09 08:34:25;;;;;;;8.45;1.33;;;20.80;99.90;;;;;;4721063;30;20049;-70
2022/07/09 08:36:50;;;;;;;9.25;1.42;;;20.80;99.90;;;;;;4722002;30;20053;-70
2022/07/09 08:39:16;;;;;;;7.82;1.70;;;20.70;99.90;;;;;;4720844;30;20055;-70
2022/07/09 08:41:43;;;;;;;8.32;1.35;;;20.70;99.90;;;;;;4722080;30;20080;-70
2022/07/09 08:44:12;;;;;;;7.55;1.60;;;20.40;99.90;;;;;;4721977;30;20111;-69
2022/07/09 08:46:39;;;;;;;12.10;1.92;;;20.60;99.90;;;;;;4721453;30;20049;-71
2022/07/09 08:49:06;;;;;;;10.25;2.03;;;20.90;99.90;;;;;;4721786;30;20044;-70
2022/07/09 08:51:34;;;;;;;3.47;1.23;;;21.20;99.90;;;;;;4721965;30;20052;-70
2022/07/09 08:54:01;;;;;;;7.18;1.65;;;21.40;99.90;;;;;;4721739;30;20076;-70
2022/07/09 08:56:26;;;;;;;6.57;1.40;;;21.50;99.90;;;;;;4721843;30;20217;-70
2022/07/09 08:58:52;;;;;;;4.53;1.15;;;21.50;99.90;;;;;;4721715;30;20087;-70
2022/07/09 09:01:18;;;;;;;3.00;0.93;;;21.50;99.90;;;;;;4721456;30;20052;-70
2022/07/09 09:03:45;;;;;;;4.60;1.15;;;21.50;99.90;;;;;;4721604;30;20104;-70
2022/07/09 09:06:12;;;;;;;8.73;1.30;;;21.60;99.90;;;;;;4720741;30;20451;-70
2022/07/09 09:08:40;;;;;;;6.28;1.63;;;21.70;99.90;;;;;;4721321;30;20448;-71
2022/07/09 09:11:19;;;;;;;4.80;1.00;;;21.70;99.90;;;;;;4720505;30;20339;-71
2022/07/09 09:13:46;;;;;;;5.35;1.13;;;21.70;99.90;;;;;;4721634;30;20202;-85
2022/07/09 09:16:13;;;;;;;7.80;1.25;;;21.70;99.90;;;;;;4705529;30;20068;-73
2022/07/09 09:18:44;;;;;;;7.93;1.48;;;21.80;99.90;;;;;;4721185;30;20065;-69
2022/07/09 09:21:11;;;;;;;3.83;1.48;;;22.00;99.90;;;;;;4720328;30;20053;-68
2022/07/09 09:23:43;;;;;;;5.97;1.38;;;21.80;99.90;;;;;;4721129;30;20170;-69
2022/07/09 09:26:16;;;;;;;6.57;1.20;;;21.70;99.90;;;;;;4720121;30;20049;-68
2022/07/09 09:28:53;;;;;;;8.88;1.90;;;21.50;99.90;;;;;;4721153;30;20079;-69
2022/07/09 09:31:28;;;;;;;8.52;1.40;;;21.80;99.90;;;;;;4721320;30;20052;-69
2022/07/09 09:33:56;;;;;;;7.28;1.40;;;22.00;99.90;;;;;;4721078;30;20393;-69
2022/07/09 09:36:33;;;;;;;8.65;1.27;;;22.10;99.90;;;;;;4720105;30;20075;-68
2022/07/09 09:39:18;;;;;;;7.03;1.40;;;21.90;99.90;;;;;;4720911;30;20502;-69
2022/07/09 09:41:46;;;;;;;6.20;1.20;;;21.70;99.90;;;;;;4720963;30;20051;-69
2022/07/09 09:44:17;;;;;;;7.10;1.38;;;21.70;99.90;;;;;;4721133;30;20049;-69
2022/07/09 09:46:44;;;;;;;6.68;1.48;;;21.60;99.90;;;;;;4720364;30;20057;-69
2022/07/09 09:49:14;;;;;;;6.53;1.42;;;21.90;99.90;;;;;;4721045;30;20343;-69
2022/07/09 09:51:56;;;;;;;2.75;1.23;;;22.00;99.90;;;;;;4720673;30;20495;-69
2022/07/09 09:54:22;;;;;;;6.60;1.48;;;22.10;99.90;;;;;;4720666;30;20055;-70
2022/07/09 09:56:49;;;;;;;5.82;1.30;;;22.00;99.90;;;;;;4720637;30;20048;-69
2022/07/09 09:59:16;;;;;;;5.43;1.33;;;21.90;99.90;;;;;;4720669;30;20124;-69
2022/07/09 10:01:43;;;;;;;5.30;1.50;;;21.90;99.90;;;;;;4719893;30;20082;-69
2022/07/09 10:04:10;;;;;;;6.53;1.27;;;22.20;99.90;;;;;;4720640;30;20049;-68
2022/07/09 10:06:36;;;;;;;5.55;1.50;;;22.10;99.90;;;;;;4720765;30;20055;-69
2022/07/09 10:09:07;;;;;;;6.88;1.88;;;22.10;99.90;;;;;;4720631;30;20083;-69
2022/07/09 10:11:42;;;;;;;8.23;1.48;;;22.00;99.90;;;;;;4720721;30;20109;-69
2022/07/09 10:14:35;;;;;;;8.27;1.45;;;22.00;99.90;;;;;;4720703;30;20118;-70
2022/07/09 10:17:15;;;;;;;5.38;1.65;;;22.10;99.90;;;;;;4719678;30;20135;-69
2022/07/09 10:19:58;;;;;;;5.85;1.40;;;22.20;99.90;;;;;;4720544;30;20057;-69
2022/07/09 10:22:37;;;;;;;6.38;2.22;;;22.50;99.90;;;;;;4720402;30;20584;-69
2022/07/09 10:25:03;;;;;;;8.93;1.52;;;22.50;99.90;;;;;;4720656;30;20132;-69
2022/07/09 10:27:29;;;;;;;5.75;1.50;;;22.60;99.90;;;;;;4719248;30;20053;-69
2022/07/09 10:29:59;;;;;;;9.70;1.92;;;22.70;99.90;;;;;;4708177;30;20056;-69
2022/07/09 10:32:30;;;;;;;7.95;1.70;;;22.40;99.90;;;;;;4716782;30;20048;-69
2022/07/09 10:35:03;;;;;;;8.65;1.50;;;22.30;99.90;;;;;;4717841;30;20459;-69
2022/07/09 10:37:33;;;;;;;6.57;1.20;;;21.80;99.90;;;;;;4710015;30;20088;-69
2022/07/09 10:40:12;;;;;;;9.85;1.80;;;21.40;99.90;;;;;;4720109;30;20084;-70
2022/07/09 10:42:39;;;;;;;4.38;1.52;;;21.30;99.90;;;;;;4717674;30;20160;-69
2022/07/09 10:45:40;;;;;;;8.73;2.10;;;21.20;99.90;;;;;;4709244;30;20045;-69
2022/07/09 10:48:07;;;;;;;7.78;1.02;;;20.80;99.90;;;;;;4719704;30;20041;-69
2022/07/09 10:50:37;;;;;;;9.90;1.35;;;20.50;99.90;;;;;;4704476;30;20057;-69
2022/07/09 10:53:03;;;;;;;7.22;1.27;;;20.60;99.90;;;;;;4715532;30;20053;-71
2022/07/09 10:55:30;;;;;;;11.98;1.55;;;20.70;99.90;;;;;;4720325;30;20313;-69
2022/07/09 10:57:56;;;;;;;10.32;1.80;;;20.70;99.90;;;;;;4719887;30;20395;-69
2022/07/09 11:00:24;;;;;;;9.63;1.63;;;20.90;99.90;;;;;;4719795;30;20052;-69
2022/07/09 11:02:52;;;;;;;11.50;1.60;;;21.10;99.90;;;;;;4718809;30;20061;-70
2022/07/09 11:05:18;;;;;;;7.82;1.55;;;21.40;99.90;;;;;;4718549;30;20343;-69
2022/07/09 11:08:07;;;;;;;8.10;1.70;;;21.30;99.90;;;;;;4720058;30;20052;-69
2022/07/09 11:10:37;;;;;;;7.55;1.40;;;21.30;99.90;;;;;;4719934;30;20041;-70
2022/07/09 11:13:06;;;;;;;10.07;1.35;;;21.40;99.90;;;;;;4720179;30;20087;-71
2022/07/09 11:15:35;;;;;;;6.82;1.35;;;21.50;99.90;;;;;;4720151;30;20114;-70
2022/07/09 11:18:04;;;;;;;5.63;1.05;;;21.60;99.90;;;;;;4719332;30;20444;-70
2022/07/09 11:20:31;;;;;;;6.18;1.25;;;21.60;99.90;;;;;;4720171;30;20057;-69
2022/07/09 11:22:59;;;;;;;5.47;1.00;;;21.50;99.90;;;;;;4720008;30;20064;-69
2022/07/09 11:25:28;;;;;;;6.68;0.60;;;21.30;99.90;;;;;;4719414;30;20049;-69
2022/07/09 11:27:56;;;;;;;5.22;1.17;;;21.20;99.90;;;;;;4718744;30;20344;-69
2022/07/09 11:30:21;;;;;;;3.40;0.93;;;21.30;99.90;;;;;;4706958;30;20053;-69
2022/07/09 11:32:48;;;;;;;6.88;0.90;;;21.60;99.90;;;;;;4723072;30;20113;-68
2022/07/09 11:35:25;;;;;;;4.75;1.10;;;21.90;99.90;;;;;;4722893;30;20052;-69
2022/07/09 11:37:51;;;;;;;7.28;1.00;;;22.00;99.90;;;;;;4720610;30;20049;-71
2022/07/09 11:40:18;;;;;;;6.40;1.02;;;22.00;99.90;;;;;;4712667;30;20216;-70
2022/07/09 11:42:44;;;;;;;4.80;0.85;;;22.10;99.90;;;;;;4722926;30;20045;-70
2022/07/09 11:45:12;;;;;;;6.80;0.98;;;22.10;99.90;;;;;;4723323;30;20057;-69
2022/07/09 11:47:41;;;;;;;5.90;0.85;;;22.50;99.90;;;;;;4722235;30;20076;-70
2022/07/09 11:50:20;;;;;;;3.22;0.70;;;22.90;99.90;;;;;;4722512;30;20106;-70
2022/07/09 11:52:48;;;;;;;6.00;0.60;;;23.20;99.90;;;;;;4722318;30;20076;-70
2022/07/09 11:55:20;;;;;;;3.67;0.68;;;23.20;99.90;;;;;;4721445;30;20131;-70
2022/07/09 11:57:57;;;;;;;6.30;1.23;;;23.20;99.90;;;;;;4722460;30;20136;-69
2022/07/09 12:00:27;;;;;;;5.90;0.63;;;23.40;99.90;;;;;;4722586;30;20381;-71
2022/07/09 12:02:52;;;;;;;4.93;0.70;;;23.50;99.90;;;;;;4722329;30;20072;-68
2022/07/09 12:05:26;;;;;;;3.30;0.52;;;22.90;99.90;;;;;;4722426;30;20080;-69
2022/07/09 12:07:52;;;;;;;3.63;0.70;;;22.80;99.90;;;;;;4722407;30;20049;-69
2022/07/09 12:10:27;;;;;;;4.93;0.93;;;23.20;99.90;;;;;;4722672;30;20116;-69
2022/07/09 12:12:53;;;;;;;6.70;0.98;;;23.40;99.90;;;;;;4722424;30;20041;-68
2022/07/09 12:15:19;;;;;;;4.10;0.77;;;23.60;99.90;;;;;;4720871;30;20051;-69
2022/07/09 12:17:50;;;;;;;5.55;0.77;;;23.30;99.90;;;;;;4720797;30;20048;-69
2022/07/09 12:20:15;;;;;;;7.85;1.15;;;23.80;99.90;;;;;;4722329;30;20193;-68
2022/07/09 12:22:41;;;;;;;5.93;0.73;;;24.10;99.90;;;;;;4722301;30;20074;-69
2022/07/09 12:25:08;;;;;;;7.75;0.93;;;24.60;99.90;;;;;;4722139;30;20133;-69
2022/07/09 12:27:33;;;;;;;3.20;0.80;;;24.50;99.90;;;;;;4722090;30;20395;-69
2022/07/09 12:29:59;;;;;;;3.85;0.80;;;24.30;99.90;;;;;;4721863;30;20045;-69
2022/07/09 12:32:25;;;;;;;4.70;0.70;;;24.20;99.90;;;;;;4721939;30;20095;-69
2022/07/09 12:34:50;;;;;;;4.93;0.85;;;24.00;99.90;;;;;;4706635;30;20048;-69
2022/07/09 12:37:16;;;;;;;5.55;1.08;;;24.00;99.90;;;;;;4720857;30;20053;-69
2022/07/09 12:39:41;;;;;;;4.65;1.00;;;23.80;99.90;;;;;;4706486;30;20060;-69